New Orleans, Louisiana
Traffic Map
Current Weather Conditions
New Orleans, Louisiana
Broken Clouds
Broken Clouds
29°
Feels Like: 35°
Wind Chill: 29° Ceiling: 2600
Heat Index: 35° Visibility: 10mi
Dew Point: 25° Wind: 17mph
Humidity: 77% Direction: 190° (S)
Pressure: 29.83in Gusts: 0mph
Raw Report DataKNEW 222353Z 19015KT 10SM BKN026 BKN034 BKN041 29/25 A2983 RMK AO2 PK WND 19027/2302 RAB16E25 SLP094 P0000 60000 T02940250 10317 20294 51007
Traffic Incident Summary
Active as of:
Severity:
Category:
InformationThere was an issue retrieving the traffic information for this location. Please try a different location or try again shortly.
Advertisements
Track Severe Weather on mobile